sensor_id;sensor_type;location;lat;lon;timestamp;pressure;altitude;pressure_sealevel;temperature;humidity
12785;BME280;6456;42.680;23.260;2023-07-09T00:01:51;95001.06;;;19.82;69.73
12785;BME280;6456;42.680;23.260;2023-07-09T00:04:18;94996.00;;;19.80;69.82
12785;BME280;6456;42.680;23.260;2023-07-09T00:06:45;95027.06;;;20.02;69.97
12785;BME280;6456;42.680;23.260;2023-07-09T00:09:13;95076.09;;;20.27;69.98
12785;BME280;6456;42.680;23.260;2023-07-09T00:11:43;95046.59;;;20.12;69.90
12785;BME280;6456;42.680;23.260;2023-07-09T00:14:12;95069.66;;;20.23;69.93
12785;BME280;6456;42.680;23.260;2023-07-09T00:16:40;95070.22;;;20.25;70.01
12785;BME280;6456;42.680;23.260;2023-07-09T00:19:11;95057.59;;;20.16;69.84
12785;BME280;6456;42.680;23.260;2023-07-09T00:21:39;95021.13;;;19.90;69.92
12785;BME280;6456;42.680;23.260;2023-07-09T00:24:06;94971.81;;;19.50;69.61
12785;BME280;6456;42.680;23.260;2023-07-09T00:26:36;94961.91;;;19.46;70.15
12785;BME280;6456;42.680;23.260;2023-07-09T00:29:09;95053.97;;;19.90;70.38
12785;BME280;6456;42.680;23.260;2023-07-09T00:31:37;95061.00;;;20.01;70.27
12785;BME280;6456;42.680;23.260;2023-07-09T00:34:06;94988.13;;;19.54;70.43
12785;BME280;6456;42.680;23.260;2023-07-09T00:36:33;95026.66;;;19.73;71.04
12785;BME280;6456;42.680;23.260;2023-07-09T00:39:00;95058.81;;;19.93;71.00
12785;BME280;6456;42.680;23.260;2023-07-09T00:41:32;95033.06;;;19.77;71.11
12785;BME280;6456;42.680;23.260;2023-07-09T00:44:20;95020.50;;;19.72;70.83
12785;BME280;6456;42.680;23.260;2023-07-09T00:47:22;95058.31;;;19.96;70.74
12785;BME280;6456;42.680;23.260;2023-07-09T00:49:59;94996.66;;;19.51;70.87
12785;BME280;6456;42.680;23.260;2023-07-09T00:52:33;94959.38;;;19.29;71.02
12785;BME280;6456;42.680;23.260;2023-07-09T00:55:05;95052.94;;;19.91;71.06
12785;BME280;6456;42.680;23.260;2023-07-09T00:57:35;95019.94;;;19.65;71.25
12785;BME280;6456;42.680;23.260;2023-07-09T01:00:10;95040.03;;;19.78;71.49
12785;BME280;6456;42.680;23.260;2023-07-09T01:02:41;95001.47;;;19.54;71.46
12785;BME280;6456;42.680;23.260;2023-07-09T01:05:11;94975.75;;;19.38;71.92
12785;BME280;6456;42.680;23.260;2023-07-09T01:07:39;94984.28;;;19.40;71.43
12785;BME280;6456;42.680;23.260;2023-07-09T01:10:07;94976.56;;;19.38;71.80
12785;BME280;6456;42.680;23.260;2023-07-09T01:12:34;94972.50;;;19.36;71.46
12785;BME280;6456;42.680;23.260;2023-07-09T01:15:01;95026.91;;;19.66;71.44
12785;BME280;6456;42.680;23.260;2023-07-09T01:17:30;94993.94;;;19.46;71.64
12785;BME280;6456;42.680;23.260;2023-07-09T01:19:57;94974.88;;;19.32;71.48
12785;BME280;6456;42.680;23.260;2023-07-09T01:22:26;95036.06;;;19.80;71.40
12785;BME280;6456;42.680;23.260;2023-07-09T01:24:58;95039.78;;;19.79;71.72
12785;BME280;6456;42.680;23.260;2023-07-09T01:27:30;95036.28;;;19.79;71.70
12785;BME280;6456;42.680;23.260;2023-07-09T01:29:59;95039.50;;;19.76;71.77
12785;BME280;6456;42.680;23.260;2023-07-09T01:32:26;95014.31;;;19.62;71.62
12785;BME280;6456;42.680;23.260;2023-07-09T01:34:56;95028.00;;;19.75;71.81
12785;BME280;6456;42.680;23.260;2023-07-09T01:37:27;95031.72;;;19.74;71.92
12785;BME280;6456;42.680;23.260;2023-07-09T01:39:54;95032.53;;;19.75;71.59
12785;BME280;6456;42.680;23.260;2023-07-09T01:42:24;95013.50;;;19.56;71.85
12785;BME280;6456;42.680;23.260;2023-07-09T01:44:53;95038.38;;;19.67;71.45
12785;BME280;6456;42.680;23.260;2023-07-09T01:47:21;94953.63;;;19.05;71.77
12785;BME280;6456;42.680;23.260;2023-07-09T01:49:49;95011.25;;;19.38;71.48
12785;BME280;6456;42.680;23.260;2023-07-09T01:52:17;94930.31;;;18.86;71.87
12785;BME280;6456;42.680;23.260;2023-07-09T01:54:46;94926.81;;;18.85;71.59
12785;BME280;6456;42.680;23.260;2023-07-09T01:57:17;94995.63;;;19.20;72.36
12785;BME280;6456;42.680;23.260;2023-07-09T01:59:45;94944.13;;;18.83;72.23
12785;BME280;6456;42.680;23.260;2023-07-09T02:02:12;95007.28;;;19.14;72.24
12785;BME280;6456;42.680;23.260;2023-07-09T02:04:45;94969.88;;;19.04;71.92
12785;BME280;6456;42.680;23.260;2023-07-09T02:07:14;95040.03;;;19.36;72.56
12785;BME280;6456;42.680;23.260;2023-07-09T02:09:41;94990.72;;;19.07;72.40
12785;BME280;6456;42.680;23.260;2023-07-09T02:12:10;94959.13;;;18.89;72.44
12785;BME280;6456;42.680;23.260;2023-07-09T02:14:39;95005.19;;;19.16;72.37
12785;BME280;6456;42.680;23.260;2023-07-09T02:17:06;94969.81;;;18.94;71.93
12785;BME280;6456;42.680;23.260;2023-07-09T02:19:34;95040.88;;;19.42;72.27
12785;BME280;6456;42.680;23.260;2023-07-09T02:22:01;95015.38;;;19.24;72.31
12785;BME280;6456;42.680;23.260;2023-07-09T02:24:28;94982.97;;;19.05;71.99
12785;BME280;6456;42.680;23.260;2023-07-09T02:26:56;95027.41;;;19.27;72.07
12785;BME280;6456;42.680;23.260;2023-07-09T02:29:26;95008.13;;;19.19;72.10
12785;BME280;6456;42.680;23.260;2023-07-09T02:31:56;95031.94;;;19.26;71.93
12785;BME280;6456;42.680;23.260;2023-07-09T02:34:24;95060.13;;;19.44;71.98
12785;BME280;6456;42.680;23.260;2023-07-09T02:36:51;94977.03;;;18.93;71.95
12785;BME280;6456;42.680;23.260;2023-07-09T02:39:18;95024.91;;;19.15;71.80
12785;BME280;6456;42.680;23.260;2023-07-09T02:41:45;95049.06;;;19.35;71.95
12785;BME280;6456;42.680;23.260;2023-07-09T02:44:12;95045.84;;;19.28;71.99
12785;BME280;6456;42.680;23.260;2023-07-09T02:46:41;95031.56;;;19.12;72.00
12785;BME280;6456;42.680;23.260;2023-07-09T02:49:10;95077.44;;;19.41;71.71
12785;BME280;6456;42.680;23.260;2023-07-09T02:51:37;95012.81;;;19.02;71.77
12785;BME280;6456;42.680;23.260;2023-07-09T02:54:05;94986.00;;;18.82;71.79
12785;BME280;6456;42.680;23.260;2023-07-09T02:56:32;95091.56;;;19.42;72.25
12785;BME280;6456;42.680;23.260;2023-07-09T02:59:02;95051.09;;;19.18;71.56
12785;BME280;6456;42.680;23.260;2023-07-09T03:01:33;95008.16;;;18.88;71.63
12785;BME280;6456;42.680;23.260;2023-07-09T03:04:02;95031.47;;;19.02;71.55
12785;BME280;6456;42.680;23.260;2023-07-09T03:06:31;95021.88;;;19.01;71.58
12785;BME280;6456;42.680;23.260;2023-07-09T03:09:00;95102.56;;;19.45;71.80
12785;BME280;6456;42.680;23.260;2023-07-09T03:11:29;95041.66;;;19.05;71.46
12785;BME280;6456;42.680;23.260;2023-07-09T03:13:57;94977.41;;;18.75;71.41
12785;BME280;6456;42.680;23.260;2023-07-09T03:16:26;95074.22;;;19.39;71.06
12785;BME280;6456;42.680;23.260;2023-07-09T03:18:54;95084.22;;;19.54;70.99
12785;BME280;6456;42.680;23.260;2023-07-09T03:21:24;95056.75;;;19.27;70.72
12785;BME280;6456;42.680;23.260;2023-07-09T03:23:52;95056.75;;;19.27;71.27
12785;BME280;6456;42.680;23.260;2023-07-09T03:26:20;95025.09;;;19.03;70.94
12785;BME280;6456;42.680;23.260;2023-07-09T03:28:47;95091.91;;;19.50;70.98
12785;BME280;6456;42.680;23.260;2023-07-09T03:31:17;95088.78;;;19.58;71.36
12785;BME280;6456;42.680;23.260;2023-07-09T03:33:44;95042.09;;;19.29;71.28
12785;BME280;6456;42.680;23.260;2023-07-09T03:36:12;94988.72;;;18.92;72.01
12785;BME280;6456;42.680;23.260;2023-07-09T03:38:41;95022.78;;;19.17;71.49
12785;BME280;6456;42.680;23.260;2023-07-09T03:41:08;95080.47;;;19.55;70.92
12785;BME280;6456;42.680;23.260;2023-07-09T03:43:35;95013.44;;;19.14;71.13
12785;BME280;6456;42.680;23.260;2023-07-09T03:46:02;95023.16;;;19.31;71.31
12785;BME280;6456;42.680;23.260;2023-07-09T03:48:29;94990.97;;;19.05;71.48
12785;BME280;6456;42.680;23.260;2023-07-09T03:50:56;95022.97;;;19.37;71.34
12785;BME280;6456;42.680;23.260;2023-07-09T03:53:23;95059.66;;;19.57;71.59
12785;BME280;6456;42.680;23.260;2023-07-09T03:55:55;95087.03;;;19.79;71.83
12785;BME280;6456;42.680;23.260;2023-07-09T03:58:25;95025.06;;;19.35;71.83
12785;BME280;6456;42.680;23.260;2023-07-09T04:00:53;95099.41;;;19.95;72.23
12785;BME280;6456;42.680;23.260;2023-07-09T04:03:20;95065.66;;;19.74;71.99
12785;BME280;6456;42.680;23.260;2023-07-09T04:05:47;95093.06;;;20.01;72.72
12785;BME280;6456;42.680;23.260;2023-07-09T04:08:14;95008.34;;;19.45;72.62
12785;BME280;6456;42.680;23.260;2023-07-09T04:10:41;95042.16;;;19.76;71.74
12785;BME280;6456;42.680;23.260;2023-07-09T04:13:10;95086.09;;;20.00;71.80
12785;BME280;6456;42.680;23.260;2023-07-09T04:15:40;95088.22;;;19.98;72.00
12785;BME280;6456;42.680;23.260;2023-07-09T04:18:06;95084.47;;;19.99;73.51
12785;BME280;6456;42.680;23.260;2023-07-09T04:20:33;95053.66;;;19.76;73.25
12785;BME280;6456;42.680;23.260;2023-07-09T04:23:01;95059.78;;;19.77;74.08
12785;BME280;6456;42.680;23.260;2023-07-09T04:25:28;95071.63;;;19.91;72.94
12785;BME280;6456;42.680;23.260;2023-07-09T04:27:55;95094.94;;;20.06;70.62
12785;BME280;6456;42.680;23.260;2023-07-09T04:30:26;95127.94;;;20.26;72.62
12785;BME280;6456;42.680;23.260;2023-07-09T04:32:52;95096.31;;;20.13;71.27
12785;BME280;6456;42.680;23.260;2023-07-09T04:35:19;95093.63;;;20.08;70.76
12785;BME280;6456;42.680;23.260;2023-07-09T04:37:46;95042.69;;;19.73;72.53
12785;BME280;6456;42.680;23.260;2023-07-09T04:40:13;95035.16;;;19.65;70.27
12785;BME280;6456;42.680;23.260;2023-07-09T04:42:41;95133.34;;;20.36;70.94
12785;BME280;6456;42.680;23.260;2023-07-09T04:45:10;95113.19;;;20.19;70.15
12785;BME280;6456;42.680;23.260;2023-07-09T04:47:39;95134.41;;;20.35;72.92
12785;BME280;6456;42.680;23.260;2023-07-09T04:50:08;95127.75;;;20.43;71.76
12785;BME280;6456;42.680;23.260;2023-07-09T04:52:36;95132.28;;;20.42;71.94
12785;BME280;6456;42.680;23.260;2023-07-09T04:55:03;95144.53;;;20.33;73.95
12785;BME280;6456;42.680;23.260;2023-07-09T04:57:30;95096.31;;;20.13;74.76
12785;BME280;6456;42.680;23.260;2023-07-09T04:59:57;95108.16;;;20.27;71.84
12785;BME280;6456;42.680;23.260;2023-07-09T05:02:24;95118.66;;;20.44;72.46
12785;BME280;6456;42.680;23.260;2023-07-09T05:04:52;95143.34;;;20.61;71.70
12785;BME280;6456;42.680;23.260;2023-07-09T05:07:19;95109.31;;;20.41;70.73
12785;BME280;6456;42.680;23.260;2023-07-09T05:09:46;95086.25;;;20.30;70.09
12785;BME280;6456;42.680;23.260;2023-07-09T05:12:13;95141.47;;;20.62;69.19
12785;BME280;6456;42.680;23.260;2023-07-09T05:14:40;95139.34;;;20.69;71.74
12785;BME280;6456;42.680;23.260;2023-07-09T05:17:07;95136.69;;;20.74;69.64
12785;BME280;6456;42.680;23.260;2023-07-09T05:19:35;95099.69;;;20.51;68.94
12785;BME280;6456;42.680;23.260;2023-07-09T05:22:04;95073.47;;;20.42;69.86
12785;BME280;6456;42.680;23.260;2023-07-09T05:24:31;95144.78;;;20.94;69.61
12785;BME280;6456;42.680;23.260;2023-07-09T05:26:58;95092.81;;;20.75;69.00
12785;BME280;6456;42.680;23.260;2023-07-09T05:29:25;95147.25;;;21.26;69.94
12785;BME280;6456;42.680;23.260;2023-07-09T05:31:52;95151.81;;;21.35;69.18
12785;BME280;6456;42.680;23.260;2023-07-09T05:34:20;95141.91;;;21.36;72.47
12785;BME280;6456;42.680;23.260;2023-07-09T05:36:46;95149.97;;;21.56;69.47
12785;BME280;6456;42.680;23.260;2023-07-09T05:39:15;95156.66;;;21.58;69.61
12785;BME280;6456;42.680;23.260;2023-07-09T05:41:42;95144.59;;;21.56;69.25
12785;BME280;6456;42.680;23.260;2023-07-09T05:44:09;95152.91;;;21.44;68.62
12785;BME280;6456;42.680;23.260;2023-07-09T05:46:36;95157.69;;;21.37;68.79
12785;BME280;6456;42.680;23.260;2023-07-09T05:49:04;95153.69;;;21.30;69.63
12785;BME280;6456;42.680;23.260;2023-07-09T05:51:30;95149.41;;;21.19;70.04
12785;BME280;6456;42.680;23.260;2023-07-09T05:53:57;95150.97;;;21.15;72.50
12785;BME280;6456;42.680;23.260;2023-07-09T05:56:26;95153.41;;;21.16;71.84
12785;BME280;6456;42.680;23.260;2023-07-09T05:58:52;95091.22;;;20.74;74.30
12785;BME280;6456;42.680;23.260;2023-07-09T06:01:19;95135.69;;;21.05;72.22
12785;BME280;6456;42.680;23.260;2023-07-09T06:03:46;95088.53;;;20.69;71.97
12785;BME280;6456;42.680;23.260;2023-07-09T06:06:14;95095.47;;;20.70;71.21
12785;BME280;6456;42.680;23.260;2023-07-09T06:08:41;95149.09;;;21.10;72.19
12785;BME280;6456;42.680;23.260;2023-07-09T06:11:08;95120.41;;;20.95;71.92
12785;BME280;6456;42.680;23.260;2023-07-09T06:13:36;95135.75;;;21.20;73.72
12785;BME280;6456;42.680;23.260;2023-07-09T06:16:04;95146.44;;;21.20;71.94
12785;BME280;6456;42.680;23.260;2023-07-09T06:18:31;95102.22;;;20.97;73.90
12785;BME280;6456;42.680;23.260;2023-07-09T06:21:00;95138.41;;;21.20;71.24
12785;BME280;6456;42.680;23.260;2023-07-09T06:23:28;95059.69;;;20.81;70.01
12785;BME280;6456;42.680;23.260;2023-07-09T06:25:55;95097.97;;;21.01;73.86
12785;BME280;6456;42.680;23.260;2023-07-09T06:28:23;95147.56;;;21.39;70.94
12785;BME280;6456;42.680;23.260;2023-07-09T06:30:52;95141.13;;;21.45;70.03
12785;BME280;6456;42.680;23.260;2023-07-09T06:33:19;95095.59;;;21.20;72.31
12785;BME280;6456;42.680;23.260;2023-07-09T06:35:47;95145.13;;;21.53;69.56
12785;BME280;6456;42.680;23.260;2023-07-09T06:38:15;95146.75;;;21.54;72.43
12785;BME280;6456;42.680;23.260;2023-07-09T06:40:42;95143.28;;;21.58;72.70
12785;BME280;6456;42.680;23.260;2023-07-09T06:43:09;95126.41;;;21.53;72.75
12785;BME280;6456;42.680;23.260;2023-07-09T06:45:36;95138.16;;;21.67;70.59
12785;BME280;6456;42.680;23.260;2023-07-09T06:48:05;95085.97;;;21.39;72.25
12785;BME280;6456;42.680;23.260;2023-07-09T06:50:36;95142.97;;;21.80;69.85
12785;BME280;6456;42.680;23.260;2023-07-09T06:53:03;95072.03;;;21.42;68.96
12785;BME280;6456;42.680;23.260;2023-07-09T06:55:29;95127.72;;;21.70;70.08
12785;BME280;6456;42.680;23.260;2023-07-09T06:57:56;95053.31;;;21.27;70.19
12785;BME280;6456;42.680;23.260;2023-07-09T07:00:23;95143.81;;;21.91;69.03
12785;BME280;6456;42.680;23.260;2023-07-09T07:02:50;95077.38;;;21.62;67.91
12785;BME280;6456;42.680;23.260;2023-07-09T07:05:19;95089.69;;;21.73;70.08
12785;BME280;6456;42.680;23.260;2023-07-09T07:07:46;95138.97;;;22.08;67.29
12785;BME280;6456;42.680;23.260;2023-07-09T07:10:13;95154.22;;;22.07;65.70
12785;BME280;6456;42.680;23.260;2023-07-09T07:12:45;95129.31;;;22.07;66.06
12785;BME280;6456;42.680;23.260;2023-07-09T07:15:13;95127.19;;;22.04;69.09
12785;BME280;6456;42.680;23.260;2023-07-09T07:17:41;95120.72;;;22.15;67.91
12785;BME280;6456;42.680;23.260;2023-07-09T07:20:10;95140.56;;;22.19;66.01
12785;BME280;6456;42.680;23.260;2023-07-09T07:22:39;95143.75;;;22.21;67.12
12785;BME280;6456;42.680;23.260;2023-07-09T07:25:07;95134.91;;;22.20;67.85
12785;BME280;6456;42.680;23.260;2023-07-09T07:27:34;95129.31;;;22.17;65.08
12785;BME280;6456;42.680;23.260;2023-07-09T07:30:01;95130.66;;;22.14;70.36
12785;BME280;6456;42.680;23.260;2023-07-09T07:32:28;95081.63;;;21.99;63.58
12785;BME280;6456;42.680;23.260;2023-07-09T07:34:55;95128.41;;;22.42;68.32
12785;BME280;6456;42.680;23.260;2023-07-09T07:37:22;95044.13;;;21.99;66.36
12785;BME280;6456;42.680;23.260;2023-07-09T07:39:50;95125.97;;;22.50;63.52
12785;BME280;6456;42.680;23.260;2023-07-09T07:42:17;95058.28;;;22.14;66.55
12785;BME280;6456;42.680;23.260;2023-07-09T07:44:44;95050.72;;;22.26;67.23
12785;BME280;6456;42.680;23.260;2023-07-09T07:47:11;95027.75;;;22.00;65.48
12785;BME280;6456;42.680;23.260;2023-07-09T07:49:38;95117.88;;;22.65;65.72
12785;BME280;6456;42.680;23.260;2023-07-09T07:52:07;95124.88;;;22.66;65.35
12785;BME280;6456;42.680;23.260;2023-07-09T07:54:34;95046.72;;;22.24;62.14
12785;BME280;6456;42.680;23.260;2023-07-09T07:57:03;95119.19;;;22.73;69.21
12785;BME280;6456;42.680;23.260;2023-07-09T07:59:30;95114.03;;;22.86;63.93
12785;BME280;6456;42.680;23.260;2023-07-09T08:02:00;95104.09;;;22.87;68.93
12785;BME280;6456;42.680;23.260;2023-07-09T08:04:27;95102.16;;;22.92;69.46
12785;BME280;6456;42.680;23.260;2023-07-09T08:06:53;95107.00;;;22.95;64.37
12785;BME280;6456;42.680;23.260;2023-07-09T08:09:20;95107.44;;;23.08;63.60
12785;BME280;6456;42.680;23.260;2023-07-09T08:11:47;95105.56;;;23.08;65.19
12785;BME280;6456;42.680;23.260;2023-07-09T08:14:16;95110.06;;;23.18;61.90
12785;BME280;6456;42.680;23.260;2023-07-09T08:16:43;95116.53;;;23.17;64.70
12785;BME280;6456;42.680;23.260;2023-07-09T08:19:10;95019.44;;;22.61;62.36
12785;BME280;6456;42.680;23.260;2023-07-09T08:21:37;95109.03;;;23.14;64.95
12785;BME280;6456;42.680;23.260;2023-07-09T08:24:05;95108.41;;;23.27;62.80
12785;BME280;6456;42.680;23.260;2023-07-09T08:26:32;95083.81;;;23.15;62.18
12785;BME280;6456;42.680;23.260;2023-07-09T08:28:59;95023.03;;;22.90;60.74
12785;BME280;6456;42.680;23.260;2023-07-09T08:31:28;95056.47;;;23.03;61.69
12785;BME280;6456;42.680;23.260;2023-07-09T08:33:54;95008.31;;;22.82;61.94
12785;BME280;6456;42.680;23.260;2023-07-09T08:36:23;95108.81;;;23.49;63.16
12785;BME280;6456;42.680;23.260;2023-07-09T08:38:50;94999.78;;;22.75;59.64
12785;BME280;6456;42.680;23.260;2023-07-09T08:41:26;95002.91;;;22.87;62.08
12785;BME280;6456;42.680;23.260;2023-07-09T08:44:07;95115.72;;;23.55;63.00
12785;BME280;6456;42.680;23.260;2023-07-09T08:46:49;95000.81;;;22.84;59.48
12785;BME280;6456;42.680;23.260;2023-07-09T08:49:19;95090.59;;;23.41;59.53
12785;BME280;6456;42.680;23.260;2023-07-09T08:51:48;95093.69;;;23.58;61.33
12785;BME280;6456;42.680;23.260;2023-07-09T08:54:21;95008.19;;;23.03;60.68
12785;BME280;6456;42.680;23.260;2023-07-09T08:56:50;95022.03;;;23.20;60.52
12785;BME280;6456;42.680;23.260;2023-07-09T08:59:19;95085.31;;;23.65;60.84
12785;BME280;6456;42.680;23.260;2023-07-09T09:01:50;95005.66;;;23.16;59.51
12785;BME280;6456;42.680;23.260;2023-07-09T09:04:21;95107.41;;;23.85;60.66
12785;BME280;6456;42.680;23.260;2023-07-09T09:06:56;95103.06;;;23.89;59.26
12785;BME280;6456;42.680;23.260;2023-07-09T09:09:31;95018.03;;;23.46;61.35
12785;BME280;6456;42.680;23.260;2023-07-09T09:12:08;95092.75;;;24.01;59.21
12785;BME280;6456;42.680;23.260;2023-07-09T09:14:42;95102.31;;;24.12;61.40
12785;BME280;6456;42.680;23.260;2023-07-09T09:17:13;94989.22;;;23.56;58.67
12785;BME280;6456;42.680;23.260;2023-07-09T09:19:45;95094.72;;;24.19;60.57
12785;BME280;6456;42.680;23.260;2023-07-09T09:22:16;95008.13;;;23.70;58.36
12785;BME280;6456;42.680;23.260;2023-07-09T09:24:55;95106.97;;;24.31;58.29
12785;BME280;6456;42.680;23.260;2023-07-09T09:27:23;95037.00;;;23.83;57.67
12785;BME280;6456;42.680;23.260;2023-07-09T09:29:50;95107.22;;;24.34;57.50
12785;BME280;6456;42.680;23.260;2023-07-09T09:32:26;95098.56;;;24.37;60.67
12785;BME280;6456;42.680;23.260;2023-07-09T09:34:53;95103.66;;;24.39;58.47
12785;BME280;6456;42.680;23.260;2023-07-09T09:37:25;95088.81;;;24.41;57.87
12785;BME280;6456;42.680;23.260;2023-07-09T09:39:53;95094.09;;;24.51;63.93
12785;BME280;6456;42.680;23.260;2023-07-09T09:42:32;95056.84;;;24.40;59.90
12785;BME280;6456;42.680;23.260;2023-07-09T09:45:00;95088.41;;;24.53;57.81
12785;BME280;6456;42.680;23.260;2023-07-09T09:47:29;94993.91;;;23.93;56.71
12785;BME280;6456;42.680;23.260;2023-07-09T09:49:55;95002.94;;;24.07;57.57
12785;BME280;6456;42.680;23.260;2023-07-09T09:52:28;95085.53;;;24.68;55.53
12785;BME280;6456;42.680;23.260;2023-07-09T09:55:03;95048.06;;;24.53;54.77
12785;BME280;6456;42.680;23.260;2023-07-09T09:57:36;95036.84;;;24.46;58.53
12785;BME280;6456;42.680;23.260;2023-07-09T10:00:04;95022.72;;;24.35;56.83
12785;BME280;6456;42.680;23.260;2023-07-09T10:02:39;95077.38;;;24.73;56.45
12785;BME280;6456;42.680;23.260;2023-07-09T10:05:11;94991.97;;;24.22;56.84
12785;BME280;6456;42.680;23.260;2023-07-09T10:07:43;95028.22;;;24.49;53.84
12785;BME280;6456;42.680;23.260;2023-07-09T10:10:15;95039.13;;;24.57;52.55
12785;BME280;6456;42.680;23.260;2023-07-09T10:12:49;95002.00;;;24.36;53.41
12785;BME280;6456;42.680;23.260;2023-07-09T10:15:24;95002.44;;;24.43;55.99
12785;BME280;6456;42.680;23.260;2023-07-09T10:18:01;95039.97;;;24.53;55.90
12785;BME280;6456;42.680;23.260;2023-07-09T10:20:35;95073.75;;;24.88;53.53
12785;BME280;6456;42.680;23.260;2023-07-09T10:23:14;95045.59;;;24.80;59.19
12785;BME280;6456;42.680;23.260;2023-07-09T10:25:47;95059.75;;;25.04;55.31
12785;BME280;6456;42.680;23.260;2023-07-09T10:28:38;95012.78;;;24.73;54.16
12785;BME280;6456;42.680;23.260;2023-07-09T10:31:15;95046.81;;;25.06;54.29
12785;BME280;6456;42.680;23.260;2023-07-09T10:33:55;95011.69;;;24.79;54.29
12785;BME280;6456;42.680;23.260;2023-07-09T10:36:46;95022.22;;;24.94;51.99
12785;BME280;6456;42.680;23.260;2023-07-09T10:39:19;95031.22;;;25.03;53.43
12785;BME280;6456;42.680;23.260;2023-07-09T10:41:50;95037.47;;;25.17;52.94
12785;BME280;6456;42.680;23.260;2023-07-09T10:44:22;95049.56;;;25.20;50.70
12785;BME280;6456;42.680;23.260;2023-07-09T10:46:57;94978.50;;;24.65;51.39
12785;BME280;6456;42.680;23.260;2023-07-09T10:49:31;95040.75;;;25.14;50.06
12785;BME280;6456;42.680;23.260;2023-07-09T10:52:06;95009.25;;;24.96;53.12
12785;BME280;6456;42.680;23.260;2023-07-09T10:54:39;95019.38;;;25.04;53.04
12785;BME280;6456;42.680;23.260;2023-07-09T10:57:17;95061.84;;;25.26;50.25
12785;BME280;6456;42.680;23.260;2023-07-09T10:59:47;95060.75;;;25.27;50.61
12785;BME280;6456;42.680;23.260;2023-07-09T11:02:21;94993.75;;;24.88;50.33
12785;BME280;6456;42.680;23.260;2023-07-09T11:04:56;95018.78;;;25.07;49.63
12785;BME280;6456;42.680;23.260;2023-07-09T11:07:26;95044.03;;;25.43;49.18
12785;BME280;6456;42.680;23.260;2023-07-09T11:09:56;95026.03;;;25.25;47.17
12785;BME280;6456;42.680;23.260;2023-07-09T11:12:32;95056.31;;;25.55;50.35
12785;BME280;6456;42.680;23.260;2023-07-09T11:15:02;94967.50;;;24.99;47.57
12785;BME280;6456;42.680;23.260;2023-07-09T11:17:30;95013.09;;;25.27;49.31
12785;BME280;6456;42.680;23.260;2023-07-09T11:20:07;94976.56;;;25.03;50.80
12785;BME280;6456;42.680;23.260;2023-07-09T11:22:39;95063.00;;;25.57;49.82
12785;BME280;6456;42.680;23.260;2023-07-09T11:25:08;95042.91;;;25.50;49.18
12785;BME280;6456;42.680;23.260;2023-07-09T11:27:45;95026.97;;;25.34;48.79
12785;BME280;6456;42.680;23.260;2023-07-09T11:30:21;95033.28;;;25.43;47.98
12785;BME280;6456;42.680;23.260;2023-07-09T11:32:53;95046.94;;;25.66;47.84
12785;BME280;6456;42.680;23.260;2023-07-09T11:35:24;95044.38;;;25.74;51.23
12785;BME280;6456;42.680;23.260;2023-07-09T11:37:51;94986.66;;;25.43;50.04
12785;BME280;6456;42.680;23.260;2023-07-09T11:40:21;94996.53;;;25.53;48.84
12785;BME280;6456;42.680;23.260;2023-07-09T11:42:51;95011.81;;;25.71;48.46
12785;BME280;6456;42.680;23.260;2023-07-09T11:45:22;94991.44;;;25.65;47.42
12785;BME280;6456;42.680;23.260;2023-07-09T11:47:55;94988.84;;;25.60;49.42
12785;BME280;6456;42.680;23.260;2023-07-09T11:50:33;94930.00;;;25.34;48.67
12785;BME280;6456;42.680;23.260;2023-07-09T11:53:04;94935.28;;;25.39;50.22
12785;BME280;6456;42.680;23.260;2023-07-09T11:55:41;94999.66;;;25.87;48.49
12785;BME280;6456;42.680;23.260;2023-07-09T11:58:10;95037.59;;;26.04;49.20
12785;BME280;6456;42.680;23.260;2023-07-09T12:00:39;94955.38;;;25.61;48.79
12785;BME280;6456;42.680;23.260;2023-07-09T12:03:09;94952.59;;;25.66;48.19
12785;BME280;6456;42.680;23.260;2023-07-09T12:05:41;94933.53;;;25.48;47.75
12785;BME280;6456;42.680;23.260;2023-07-09T12:08:15;94953.91;;;25.55;47.73
12785;BME280;6456;42.680;23.260;2023-07-09T12:10:45;94967.19;;;25.65;50.24
12785;BME280;6456;42.680;23.260;2023-07-09T12:13:13;94995.66;;;25.98;52.16
12785;BME280;6456;42.680;23.260;2023-07-09T12:15:40;94949.63;;;25.81;48.90
12785;BME280;6456;42.680;23.260;2023-07-09T12:18:11;95025.13;;;26.08;49.47
12785;BME280;6456;42.680;23.260;2023-07-09T12:20:41;94975.38;;;25.87;47.54
12785;BME280;6456;42.680;23.260;2023-07-09T12:23:11;95009.19;;;26.25;47.97
12785;BME280;6456;42.680;23.260;2023-07-09T12:25:47;94978.50;;;26.07;48.65
12785;BME280;6456;42.680;23.260;2023-07-09T12:28:15;94985.09;;;26.15;49.75
12785;BME280;6456;42.680;23.260;2023-07-09T12:30:45;94959.19;;;26.00;48.06
12785;BME280;6456;42.680;23.260;2023-07-09T12:33:15;95007.47;;;26.43;50.82
12785;BME280;6456;42.680;23.260;2023-07-09T12:35:44;94998.56;;;26.42;48.70
12785;BME280;6456;42.680;23.260;2023-07-09T12:38:17;94974.66;;;26.36;48.10
12785;BME280;6456;42.680;23.260;2023-07-09T12:40:46;95006.44;;;26.52;47.41
12785;BME280;6456;42.680;23.260;2023-07-09T12:43:15;95009.94;;;26.53;47.22
12785;BME280;6456;42.680;23.260;2023-07-09T12:45:44;94980.66;;;26.46;47.19
12785;BME280;6456;42.680;23.260;2023-07-09T12:48:12;94962.09;;;26.31;50.31
12785;BME280;6456;42.680;23.260;2023-07-09T12:50:39;94992.41;;;26.64;47.40
12785;BME280;6456;42.680;23.260;2023-07-09T12:53:15;94917.69;;;26.15;48.73
12785;BME280;6456;42.680;23.260;2023-07-09T12:55:44;94996.22;;;26.77;46.45
12785;BME280;6456;42.680;23.260;2023-07-09T12:58:18;94951.28;;;26.45;47.40
12785;BME280;6456;42.680;23.260;2023-07-09T13:00:48;94957.25;;;26.55;47.04
12785;BME280;6456;42.680;23.260;2023-07-09T13:03:19;94957.44;;;26.59;47.27
12785;BME280;6456;42.680;23.260;2023-07-09T13:05:55;94925.78;;;26.51;48.23
12785;BME280;6456;42.680;23.260;2023-07-09T13:08:24;94916.66;;;26.60;48.58
12785;BME280;6456;42.680;23.260;2023-07-09T13:10:51;94935.50;;;26.74;48.31
12785;BME280;6456;42.680;23.260;2023-07-09T13:13:21;94985.16;;;27.00;48.05